sensor_id;sensor_type;location;lat;lon;timestamp;pressure;altitude;pressure_sealevel;temperature;humidity
31183;BME280;17813;0.000;0.000;2023-04-10T00:00:36;77787.69;;;-142.58;80.43
31183;BME280;17813;0.000;0.000;2023-04-10T00:03:08;77787.69;;;-142.58;80.25
31183;BME280;17813;0.000;0.000;2023-04-10T00:05:34;77785.66;;;-142.58;79.89
31183;BME280;17813;0.000;0.000;2023-04-10T00:08:02;77777.50;;;-142.58;79.64
31183;BME280;17813;0.000;0.000;2023-04-10T00:10:29;77781.56;;;-142.58;80.16
31183;BME280;17813;0.000;0.000;2023-04-10T00:12:57;77773.44;;;-142.58;80.67
31183;BME280;17813;0.000;0.000;2023-04-10T00:15:26;77785.66;;;-142.58;80.73
31183;BME280;17813;0.000;0.000;2023-04-10T00:17:54;77785.66;;;-142.58;81.34
31183;BME280;17813;0.000;0.000;2023-04-10T00:20:21;77791.75;;;-142.58;80.69
31183;BME280;17813;0.000;0.000;2023-04-10T00:22:49;77791.75;;;-142.58;80.84
31183;BME280;17813;0.000;0.000;2023-04-10T00:25:16;77791.75;;;-142.58;80.94
31183;BME280;17813;0.000;0.000;2023-04-10T00:27:43;77797.84;;;-142.58;81.28
31183;BME280;17813;0.000;0.000;2023-04-10T00:30:10;77806.00;;;-142.58;80.83
31183;BME280;17813;0.000;0.000;2023-04-10T00:32:38;77818.22;;;-142.58;80.95
31183;BME280;17813;0.000;0.000;2023-04-10T00:35:06;33744.44;;;-142.58;81.26
31183;BME280;17813;0.000;0.000;2023-04-10T00:37:33;77826.47;;;-142.58;81.25
31183;BME280;17813;0.000;0.000;2023-04-10T00:40:01;77822.41;;;-142.58;81.63
31183;BME280;17813;0.000;0.000;2023-04-10T00:42:28;77820.25;;;-142.58;81.79
31183;BME280;17813;0.000;0.000;2023-04-10T00:44:55;77814.25;;;-142.58;81.21
31183;BME280;17813;0.000;0.000;2023-04-10T00:47:22;77818.22;;;-142.58;81.48
31183;BME280;17813;0.000;0.000;2023-04-10T00:49:50;77814.25;;;-142.58;80.63
31183;BME280;17813;0.000;0.000;2023-04-10T00:52:18;77808.03;;;-142.58;80.87
31183;BME280;17813;0.000;0.000;2023-04-10T00:54:45;77795.81;;;-142.58;79.86
31183;BME280;17813;0.000;0.000;2023-04-10T00:57:12;77814.13;;;-142.58;80.61
31183;BME280;17813;0.000;0.000;2023-04-10T00:59:39;77814.25;;;-142.58;80.58
31183;BME280;17813;0.000;0.000;2023-04-10T01:02:06;77814.25;;;-142.58;80.81
31183;BME280;17813;0.000;0.000;2023-04-10T01:04:33;77810.06;;;-142.58;79.49
31183;BME280;17813;0.000;0.000;2023-04-10T01:12:43;77830.53;;;-142.58;79.55
31183;BME280;17813;0.000;0.000;2023-04-10T01:15:24;77856.88;;;-142.58;80.71
31183;BME280;17813;0.000;0.000;2023-04-10T01:20:34;77862.97;;;-142.58;81.53
31183;BME280;17813;0.000;0.000;2023-04-10T01:26:03;77867.06;;;-142.58;82.33
31183;BME280;17813;0.000;0.000;2023-04-10T01:29:00;77879.25;;;-142.58;82.07
31183;BME280;17813;0.000;0.000;2023-04-10T01:31:43;77883.34;;;-142.58;81.66
31183;BME280;17813;0.000;0.000;2023-04-10T01:34:26;77885.38;;;-142.58;82.47
31183;BME280;17813;0.000;0.000;2023-04-10T01:37:04;77901.66;;;-142.58;82.22
31183;BME280;17813;0.000;0.000;2023-04-10T01:39:38;77913.88;;;-142.58;82.90
31183;BME280;17813;0.000;0.000;2023-04-10T01:42:13;77911.81;;;-142.58;83.45
31183;BME280;17813;0.000;0.000;2023-04-10T01:44:44;77905.72;;;-142.58;82.54
31183;BME280;17813;0.000;0.000;2023-04-10T01:47:14;77907.75;;;-142.58;82.06
31183;BME280;17813;0.000;0.000;2023-04-10T01:49:46;77907.75;;;-142.58;81.11
31183;BME280;17813;0.000;0.000;2023-04-10T01:52:13;77899.63;;;-142.58;81.70
31183;BME280;17813;0.000;0.000;2023-04-10T01:54:42;77893.50;;;-142.58;81.44
31183;BME280;17813;0.000;0.000;2023-04-10T01:57:11;77893.50;;;-142.58;81.80
31183;BME280;17813;0.000;0.000;2023-04-10T01:59:40;77883.34;;;-142.58;81.74
31183;BME280;17813;0.000;0.000;2023-04-10T02:02:08;77877.22;;;-142.58;81.78
31183;BME280;17813;0.000;0.000;2023-04-10T02:04:37;77883.34;;;-142.58;81.74
31183;BME280;17813;0.000;0.000;2023-04-10T02:07:21;77877.22;;;-142.58;80.96
31183;BME280;17813;0.000;0.000;2023-04-10T02:10:03;77879.25;;;-142.58;81.05
31183;BME280;17813;0.000;0.000;2023-04-10T02:12:40;77883.34;;;-142.58;82.15
31183;BME280;17813;0.000;0.000;2023-04-10T02:15:09;77883.34;;;-142.58;81.62
31183;BME280;17813;0.000;0.000;2023-04-10T02:17:38;77885.38;;;-142.58;82.55
31183;BME280;17813;0.000;0.000;2023-04-10T02:20:07;77895.53;;;-142.58;82.60
31183;BME280;17813;0.000;0.000;2023-04-10T02:22:38;77903.69;;;-142.58;83.43
31183;BME280;17813;0.000;0.000;2023-04-10T02:25:09;77928.09;;;-142.58;83.15
31183;BME280;17813;0.000;0.000;2023-04-10T02:27:37;77928.22;;;-142.58;83.01
31183;BME280;17813;0.000;0.000;2023-04-10T02:30:04;77924.03;;;-142.58;83.68
31183;BME280;17813;0.000;0.000;2023-04-10T02:32:32;77926.06;;;-142.58;82.42
31183;BME280;17813;0.000;0.000;2023-04-10T02:35:00;77940.31;;;-142.58;83.18
31183;BME280;17813;0.000;0.000;2023-04-10T02:37:33;77936.25;;;-142.58;83.53
31183;BME280;17813;0.000;0.000;2023-04-10T02:40:04;77926.06;;;-142.58;83.24
31183;BME280;17813;0.000;0.000;2023-04-10T02:42:32;77932.19;;;-142.58;83.11
31183;BME280;17813;0.000;0.000;2023-04-10T02:44:59;77911.81;;;-142.58;83.16
31183;BME280;17813;0.000;0.000;2023-04-10T02:47:25;77911.81;;;-142.58;83.85
31183;BME280;17813;0.000;0.000;2023-04-10T02:49:52;77909.78;;;-142.58;82.55
31183;BME280;17813;0.000;0.000;2023-04-10T02:52:19;77901.66;;;-142.58;82.53
31183;BME280;17813;0.000;0.000;2023-04-10T02:54:46;77889.44;;;-142.58;81.95
31183;BME280;17813;0.000;0.000;2023-04-10T02:57:13;77893.50;;;-142.58;82.30
31183;BME280;17813;0.000;0.000;2023-04-10T02:59:40;77901.66;;;-142.58;81.71
31183;BME280;17813;0.000;0.000;2023-04-10T03:02:07;77889.44;;;-142.58;81.77
31183;BME280;17813;0.000;0.000;2023-04-10T03:04:34;77891.47;;;-142.58;82.25
31183;BME280;17813;0.000;0.000;2023-04-10T03:07:02;77903.69;;;-142.58;82.22
31183;BME280;17813;0.000;0.000;2023-04-10T03:09:28;77905.72;;;-142.58;83.18
31183;BME280;17813;0.000;0.000;2023-04-10T03:11:55;77911.81;;;-142.58;83.04
31183;BME280;17813;0.000;0.000;2023-04-10T03:14:22;77903.69;;;-142.58;81.82
31183;BME280;17813;0.000;0.000;2023-04-10T03:16:49;77907.75;;;-142.58;82.54
31183;BME280;17813;0.000;0.000;2023-04-10T03:19:16;77907.75;;;-142.58;82.20
31183;BME280;17813;0.000;0.000;2023-04-10T03:21:45;77917.94;;;-142.58;81.89
31183;BME280;17813;0.000;0.000;2023-04-10T03:24:12;77919.97;;;-142.58;82.05
31183;BME280;17813;0.000;0.000;2023-04-10T03:26:39;77915.91;;;-142.58;82.07
31183;BME280;17813;0.000;0.000;2023-04-10T03:29:06;77924.03;;;-142.58;83.71
31183;BME280;17813;0.000;0.000;2023-04-10T03:31:33;77970.84;;;-142.58;83.70
31183;BME280;17813;0.000;0.000;2023-04-10T03:34:00;78001.38;;;-142.58;83.83
31183;BME280;17813;0.000;0.000;2023-04-10T03:36:27;77999.34;;;-142.58;84.22
31183;BME280;17813;0.000;0.000;2023-04-10T03:38:54;78001.38;;;-142.58;84.16
31183;BME280;17813;0.000;0.000;2023-04-10T03:41:21;77997.31;;;-142.58;83.53
31183;BME280;17813;0.000;0.000;2023-04-10T03:43:51;77987.13;;;-142.58;83.00
31183;BME280;17813;0.000;0.000;2023-04-10T03:46:18;77983.06;;;-142.58;84.83
31183;BME280;17813;0.000;0.000;2023-04-10T03:48:45;77989.16;;;-142.58;84.77
31183;BME280;17813;0.000;0.000;2023-04-10T03:51:14;77979.00;;;-142.58;83.96
31183;BME280;17813;0.000;0.000;2023-04-10T03:53:41;77981.03;;;-142.58;83.02
31183;BME280;17813;0.000;0.000;2023-04-10T03:56:08;77983.06;;;-142.58;83.65
31183;BME280;17813;0.000;0.000;2023-04-10T03:58:35;77974.91;;;-142.58;84.06
31183;BME280;17813;0.000;0.000;2023-04-10T04:01:03;77985.09;;;-142.58;83.18
31183;BME280;17813;0.000;0.000;2023-04-10T04:03:30;77981.03;;;-142.58;83.39
31183;BME280;17813;0.000;0.000;2023-04-10T04:05:58;77981.03;;;-142.58;83.24
31183;BME280;17813;0.000;0.000;2023-04-10T04:08:25;77985.09;;;-142.58;83.13
31183;BME280;17813;0.000;0.000;2023-04-10T04:10:52;77976.94;;;-142.58;83.60
31183;BME280;17813;0.000;0.000;2023-04-10T04:13:19;77970.84;;;-142.58;83.08
31183;BME280;17813;0.000;0.000;2023-04-10T04:15:46;77974.91;;;-142.58;83.01
31183;BME280;17813;0.000;0.000;2023-04-10T04:18:13;77968.81;;;-142.58;83.63
31183;BME280;17813;0.000;0.000;2023-04-10T04:20:40;77976.94;;;-142.58;82.92
31183;BME280;17813;0.000;0.000;2023-04-10T04:23:07;77981.03;;;-142.58;83.16
31183;BME280;17813;0.000;0.000;2023-04-10T04:25:33;77972.88;;;-142.58;83.64
31183;BME280;17813;0.000;0.000;2023-04-10T04:28:01;77968.81;;;-142.58;82.81
31183;BME280;17813;0.000;0.000;2023-04-10T04:30:27;77972.88;;;-142.58;82.93
31183;BME280;17813;0.000;0.000;2023-04-10T04:33:20;77968.81;;;-142.58;83.21
31183;BME280;17813;0.000;0.000;2023-04-10T04:43:24;78013.59;;;-142.58;84.01
31183;BME280;17813;0.000;0.000;2023-04-10T04:45:51;77999.34;;;-142.58;83.49
31183;BME280;17813;0.000;0.000;2023-04-10T04:48:18;77989.16;;;-142.58;83.00
31183;BME280;17813;0.000;0.000;2023-04-10T04:50:46;77985.09;;;-142.58;83.01
31183;BME280;17813;0.000;0.000;2023-04-10T04:53:13;77987.13;;;-142.58;83.63
31183;BME280;17813;0.000;0.000;2023-04-10T04:55:40;77979.00;;;-142.58;83.67
31183;BME280;17813;0.000;0.000;2023-04-10T04:58:07;77981.03;;;-142.58;83.60
31183;BME280;17813;0.000;0.000;2023-04-10T05:00:34;77972.88;;;-142.58;83.66
31183;BME280;17813;0.000;0.000;2023-04-10T05:03:01;77952.66;;;-142.58;83.11
31183;BME280;17813;0.000;0.000;2023-04-10T05:05:28;77948.59;;;-142.58;83.08
31183;BME280;17813;0.000;0.000;2023-04-10T05:07:55;77936.25;;;-142.58;82.94
31183;BME280;17813;0.000;0.000;2023-04-10T05:10:22;77917.94;;;-142.58;82.69
31183;BME280;17813;0.000;0.000;2023-04-10T05:12:49;77917.94;;;-142.58;82.86
31183;BME280;17813;0.000;0.000;2023-04-10T05:15:17;77909.78;;;-142.58;82.69
31183;BME280;17813;0.000;0.000;2023-04-10T05:17:44;77901.66;;;-142.58;82.21
31183;BME280;17813;0.000;0.000;2023-04-10T05:20:11;77895.66;;;-142.58;82.94
31183;BME280;17813;0.000;0.000;2023-04-10T05:22:38;77893.50;;;-142.58;82.39
31183;BME280;17813;0.000;0.000;2023-04-10T05:25:05;77873.16;;;-142.58;82.17
31183;BME280;17813;0.000;0.000;2023-04-10T05:27:34;77865.00;;;-142.58;82.62
31183;BME280;17813;0.000;0.000;2023-04-10T05:30:02;77865.00;;;-142.58;82.32
31183;BME280;17813;0.000;0.000;2023-04-10T05:32:29;77858.91;;;-142.58;82.33
31183;BME280;17813;0.000;0.000;2023-04-10T05:34:56;77836.53;;;-142.58;82.00
31183;BME280;17813;0.000;0.000;2023-04-10T05:37:23;77830.53;;;-142.58;82.28
31183;BME280;17813;0.000;0.000;2023-04-10T05:39:50;77818.22;;;-142.58;81.92
31183;BME280;17813;0.000;0.000;2023-04-10T05:42:17;77814.25;;;-142.58;81.65
31183;BME280;17813;0.000;0.000;2023-04-10T05:44:44;77806.00;;;-142.58;82.00
31183;BME280;17813;0.000;0.000;2023-04-10T05:47:11;77783.59;;;-142.58;82.07
31183;BME280;17813;0.000;0.000;2023-04-10T05:49:38;77775.47;;;-142.58;82.23
31183;BME280;17813;0.000;0.000;2023-04-10T05:52:05;77759.19;;;-142.58;81.26
31183;BME280;17813;0.000;0.000;2023-04-10T05:54:32;77746.97;;;-142.58;81.84
31183;BME280;17813;0.000;0.000;2023-04-10T05:56:59;77718.47;;;-142.58;80.92
31183;BME280;17813;0.000;0.000;2023-04-10T05:59:27;34245.97;;;-142.58;80.45
31183;BME280;17813;0.000;0.000;2023-04-10T06:01:57;77665.56;;;-142.58;80.47
31183;BME280;17813;0.000;0.000;2023-04-10T06:04:24;100297.78;;;-142.58;81.41
31183;BME280;17813;0.000;0.000;2023-04-10T06:06:51;100298.56;;;4.87;80.51
31183;BME280;17813;0.000;0.000;2023-04-10T06:09:18;100296.09;;;-142.58;76.89
31183;BME280;17813;0.000;0.000;2023-04-10T06:11:45;100284.31;;;7.73;72.66
31183;BME280;17813;0.000;0.000;2023-04-10T06:14:13;100281.69;;;9.06;69.04
31183;BME280;17813;0.000;0.000;2023-04-10T06:16:40;100276.81;;;10.32;65.53
31183;BME280;17813;0.000;0.000;2023-04-10T06:19:08;100274.47;;;11.16;61.35
31183;BME280;17813;0.000;0.000;2023-04-10T06:21:35;100268.84;;;11.55;60.15
31183;BME280;17813;0.000;0.000;2023-04-10T06:24:02;100262.19;;;11.97;58.15
31183;BME280;17813;0.000;0.000;2023-04-10T06:26:33;100268.34;;;12.60;56.18
31183;BME280;17813;0.000;0.000;2023-04-10T06:29:00;100260.56;;;13.03;55.39
31183;BME280;17813;0.000;0.000;2023-04-10T06:31:27;100258.47;;;13.52;53.93
31183;BME280;17813;0.000;0.000;2023-04-10T06:33:54;100259.91;;;13.72;52.51
31183;BME280;17813;0.000;0.000;2023-04-10T06:36:21;100254.00;;;13.95;53.25
31183;BME280;17813;0.000;0.000;2023-04-10T06:38:48;100245.25;;;14.88;51.69
31183;BME280;17813;0.000;0.000;2023-04-10T06:41:16;100240.59;;;15.17;48.88
31183;BME280;17813;0.000;0.000;2023-04-10T06:43:43;100236.28;;;15.67;48.33
31183;BME280;17813;0.000;0.000;2023-04-10T06:46:11;100239.25;;;15.88;47.84
31183;BME280;17813;0.000;0.000;2023-04-10T06:48:40;100236.09;;;16.06;46.89
31183;BME280;17813;0.000;0.000;2023-04-10T06:51:07;100231.25;;;16.48;45.60
31183;BME280;17813;0.000;0.000;2023-04-10T06:53:35;100236.00;;;16.68;45.30
31183;BME280;17813;0.000;0.000;2023-04-10T06:56:05;100236.19;;;17.24;43.76
31183;BME280;17813;0.000;0.000;2023-04-10T06:58:32;100229.28;;;17.55;44.13
31183;BME280;17813;0.000;0.000;2023-04-10T07:00:59;100226.50;;;17.90;43.50
31183;BME280;17813;0.000;0.000;2023-04-10T07:03:30;100231.50;;;17.95;42.50
31183;BME280;17813;0.000;0.000;2023-04-10T07:05:58;100219.53;;;17.99;41.07
31183;BME280;17813;0.000;0.000;2023-04-10T07:08:26;100227.47;;;18.23;42.15
31183;BME280;17813;0.000;0.000;2023-04-10T07:11:00;100226.34;;;18.37;40.26
31183;BME280;17813;0.000;0.000;2023-04-10T07:13:27;100223.63;;;18.48;41.59
31183;BME280;17813;0.000;0.000;2023-04-10T07:15:57;100222.00;;;18.68;40.10
31183;BME280;17813;0.000;0.000;2023-04-10T07:18:27;100221.94;;;18.79;40.18
31183;BME280;17813;0.000;0.000;2023-04-10T07:20:55;100221.19;;;19.30;40.35
31183;BME280;17813;0.000;0.000;2023-04-10T07:23:22;100220.00;;;20.04;38.83
31183;BME280;17813;0.000;0.000;2023-04-10T07:25:54;100218.97;;;20.45;36.81
31183;BME280;17813;0.000;0.000;2023-04-10T07:28:25;100201.56;;;21.07;36.18
31183;BME280;17813;0.000;0.000;2023-04-10T07:30:52;100213.41;;;21.53;36.13
31183;BME280;17813;0.000;0.000;2023-04-10T07:33:20;100215.66;;;22.04;36.28
31183;BME280;17813;0.000;0.000;2023-04-10T07:35:46;100204.50;;;22.35;34.77
31183;BME280;17813;0.000;0.000;2023-04-10T07:38:13;100207.09;;;22.54;33.32
31183;BME280;17813;0.000;0.000;2023-04-10T07:40:44;100207.25;;;21.98;33.60
31183;BME280;17813;0.000;0.000;2023-04-10T07:43:11;100204.72;;;22.24;34.50
31183;BME280;17813;0.000;0.000;2023-04-10T07:45:38;100201.38;;;22.12;33.55
31183;BME280;17813;0.000;0.000;2023-04-10T07:48:06;100206.28;;;22.26;34.51
31183;BME280;17813;0.000;0.000;2023-04-10T07:50:34;100202.19;;;22.22;34.22
31183;BME280;17813;0.000;0.000;2023-04-10T07:53:01;100190.13;;;22.80;33.89
31183;BME280;17813;0.000;0.000;2023-04-10T07:55:40;100189.84;;;22.73;32.22
31183;BME280;17813;0.000;0.000;2023-04-10T07:58:12;100193.41;;;22.56;32.50
31183;BME280;17813;0.000;0.000;2023-04-10T08:00:38;100186.13;;;23.09;32.36
31183;BME280;17813;0.000;0.000;2023-04-10T08:03:05;100185.47;;;22.90;31.53
31183;BME280;17813;0.000;0.000;2023-04-10T08:05:33;100183.94;;;22.87;31.57
31183;BME280;17813;0.000;0.000;2023-04-10T08:08:00;100184.13;;;22.76;31.46
31183;BME280;17813;0.000;0.000;2023-04-10T08:10:27;100175.03;;;22.59;32.73
31183;BME280;17813;0.000;0.000;2023-04-10T08:12:54;100167.38;;;22.90;32.13
31183;BME280;17813;0.000;0.000;2023-04-10T08:15:21;100175.34;;;23.61;31.23
31183;BME280;17813;0.000;0.000;2023-04-10T08:17:48;100171.72;;;23.79;30.81
31183;BME280;17813;0.000;0.000;2023-04-10T08:20:16;100168.91;;;23.96;30.29
31183;BME280;17813;0.000;0.000;2023-04-10T08:22:43;100168.56;;;23.39;30.78
31183;BME280;17813;0.000;0.000;2023-04-10T08:25:10;100168.81;;;23.72;31.59
31183;BME280;17813;0.000;0.000;2023-04-10T08:27:40;100161.66;;;24.05;30.59
31183;BME280;17813;0.000;0.000;2023-04-10T08:30:07;100161.84;;;24.20;30.67
31183;BME280;17813;0.000;0.000;2023-04-10T08:32:35;100155.38;;;25.04;29.52
31183;BME280;17813;0.000;0.000;2023-04-10T08:35:02;100154.84;;;25.24;28.52
31183;BME280;17813;0.000;0.000;2023-04-10T08:37:29;100156.69;;;24.59;29.28
31183;BME280;17813;0.000;0.000;2023-04-10T08:39:56;100147.22;;;24.79;29.22
31183;BME280;17813;0.000;0.000;2023-04-10T08:42:24;100136.72;;;25.00;27.67
31183;BME280;17813;0.000;0.000;2023-04-10T08:44:52;100142.47;;;24.81;28.29
31183;BME280;17813;0.000;0.000;2023-04-10T08:47:22;100134.94;;;24.18;29.46
31183;BME280;17813;0.000;0.000;2023-04-10T08:50:02;100130.84;;;24.14;28.06
31183;BME280;17813;0.000;0.000;2023-04-10T08:52:33;100138.31;;;23.70;28.84
31183;BME280;17813;0.000;0.000;2023-04-10T08:55:06;100131.97;;;23.53;28.77
31183;BME280;17813;0.000;0.000;2023-04-10T08:57:35;100127.63;;;23.08;29.42
31183;BME280;17813;0.000;0.000;2023-04-10T09:00:04;100129.75;;;22.97;29.82
31183;BME280;17813;0.000;0.000;2023-04-10T09:02:32;100131.13;;;23.01;29.40
31183;BME280;17813;0.000;0.000;2023-04-10T09:05:02;100127.38;;;22.58;29.53
31183;BME280;17813;0.000;0.000;2023-04-10T09:07:31;100131.25;;;22.38;30.38
31183;BME280;17813;0.000;0.000;2023-04-10T09:09:58;100118.84;;;22.71;29.88
31183;BME280;17813;0.000;0.000;2023-04-10T09:12:26;100116.03;;;22.55;29.61
31183;BME280;17813;0.000;0.000;2023-04-10T09:14:53;100117.34;;;22.51;29.97
31183;BME280;17813;0.000;0.000;2023-04-10T09:17:24;100108.41;;;22.94;29.43
31183;BME280;17813;0.000;0.000;2023-04-10T09:19:53;100104.75;;;23.03;29.31
31183;BME280;17813;0.000;0.000;2023-04-10T09:22:34;100106.84;;;23.69;31.09
31183;BME280;17813;0.000;0.000;2023-04-10T09:25:04;100100.88;;;24.16;28.83
31183;BME280;17813;0.000;0.000;2023-04-10T09:27:34;100098.41;;;24.47;27.65
31183;BME280;17813;0.000;0.000;2023-04-10T09:30:03;100099.75;;;24.99;27.55
31183;BME280;17813;0.000;0.000;2023-04-10T09:32:41;100087.56;;;24.63;27.11
31183;BME280;17813;0.000;0.000;2023-04-10T09:35:11;100093.91;;;23.97;28.61
31183;BME280;17813;0.000;0.000;2023-04-10T09:37:44;100091.28;;;24.62;28.32
31183;BME280;17813;0.000;0.000;2023-04-10T09:40:24;100086.03;;;24.36;28.05
31183;BME280;17813;0.000;0.000;2023-04-10T09:42:59;100080.28;;;24.39;27.80
31183;BME280;17813;0.000;0.000;2023-04-10T09:45:51;100083.66;;;23.66;27.92
31183;BME280;17813;0.000;0.000;2023-04-10T09:48:20;100085.09;;;23.53;28.78
31183;BME280;17813;0.000;0.000;2023-04-10T09:50:47;100080.41;;;23.37;29.85
31183;BME280;17813;0.000;0.000;2023-04-10T09:53:17;100068.38;;;23.57;29.16
31183;BME280;17813;0.000;0.000;2023-04-10T09:55:49;100064.34;;;23.61;28.65
31183;BME280;17813;0.000;0.000;2023-04-10T09:58:21;100057.72;;;23.30;29.87
31183;BME280;17813;0.000;0.000;2023-04-10T10:00:51;100056.88;;;23.29;30.90
31183;BME280;17813;0.000;0.000;2023-04-10T10:03:20;100045.78;;;23.83;28.10
31183;BME280;17813;0.000;0.000;2023-04-10T10:05:50;100040.50;;;23.65;28.93
31183;BME280;17813;0.000;0.000;2023-04-10T10:08:18;100028.56;;;24.24;28.97
31183;BME280;17813;0.000;0.000;2023-04-10T10:10:52;100021.44;;;24.64;28.66
31183;BME280;17813;0.000;0.000;2023-04-10T10:13:49;100027.88;;;24.79;28.10
31183;BME280;17813;0.000;0.000;2023-04-10T10:16:42;100024.69;;;24.51;27.11
31183;BME280;17813;0.000;0.000;2023-04-10T10:19:40;100021.97;;;24.27;27.97
31183;BME280;17813;0.000;0.000;2023-04-10T10:22:11;100010.28;;;25.22;28.87
31183;BME280;17813;0.000;0.000;2023-04-10T10:24:39;100004.34;;;25.89;26.57
31183;BME280;17813;0.000;0.000;2023-04-10T10:27:16;100002.09;;;24.75;27.49
31183;BME280;17813;0.000;0.000;2023-04-10T10:29:50;99997.59;;;24.35;28.30
31183;BME280;17813;0.000;0.000;2023-04-10T10:32:23;99991.69;;;25.11;27.26
31183;BME280;17813;0.000;0.000;2023-04-10T10:35:05;99993.78;;;24.77;26.79
31183;BME280;17813;0.000;0.000;2023-04-10T10:37:53;99984.47;;;24.79;27.88
31183;BME280;17813;0.000;0.000;2023-04-10T10:41:00;99981.31;;;24.27;27.83
31183;BME280;17813;0.000;0.000;2023-04-10T10:43:52;99980.75;;;23.66;28.57
31183;BME280;17813;0.000;0.000;2023-04-10T10:46:36;99966.75;;;24.12;27.55
31183;BME280;17813;0.000;0.000;2023-04-10T10:49:08;99966.75;;;24.03;28.41
31183;BME280;17813;0.000;0.000;2023-04-10T10:51:50;99959.66;;;24.27;30.32
31183;BME280;17813;0.000;0.000;2023-04-10T10:54:43;99963.56;;;23.41;28.32
31183;BME280;17813;0.000;0.000;2023-04-10T10:57:46;99958.03;;;23.51;29.86
31183;BME280;17813;0.000;0.000;2023-04-10T11:00:21;99942.69;;;23.26;29.33
31183;BME280;17813;0.000;0.000;2023-04-10T11:05:57;99943.03;;;22.55;29.83
31183;BME280;17813;0.000;0.000;2023-04-10T11:08:34;99937.03;;;21.99;30.88
31183;BME280;17813;0.000;0.000;2023-04-10T11:11:02;99934.66;;;21.96;31.76
31183;BME280;17813;0.000;0.000;2023-04-10T11:13:32;99933.81;;;21.42;31.47
31183;BME280;17813;0.000;0.000;2023-04-10T11:16:04;99918.84;;;21.03;31.34
31183;BME280;17813;0.000;0.000;2023-04-10T11:21:14;99916.38;;;20.35;34.23
31183;BME280;17813;0.000;0.000;2023-04-10T11:26:36;99904.19;;;20.78;34.03
31183;BME280;17813;0.000;0.000;2023-04-10T11:32:02;99916.63;;;20.61;33.49
31183;BME280;17813;0.000;0.000;2023-04-10T11:34:32;99909.16;;;20.36;31.87
31183;BME280;17813;0.000;0.000;2023-04-10T11:37:01;99908.41;;;19.97;32.49
31183;BME280;17813;0.000;0.000;2023-04-10T11:39:30;99907.28;;;19.70;32.83
31183;BME280;17813;0.000;0.000;2023-04-10T11:41:57;99894.28;;;19.56;33.47
31183;BME280;17813;0.000;0.000;2023-04-10T11:44:32;99899.19;;;19.89;33.67
31183;BME280;17813;0.000;0.000;2023-04-10T11:47:02;99887.41;;;20.00;32.50
31183;BME280;17813;0.000;0.000;2023-04-10T11:49:31;99888.84;;;20.04;31.73
31183;BME280;17813;0.000;0.000;2023-04-10T11:51:59;99892.44;;;20.32;33.16
31183;BME280;17813;0.000;0.000;2023-04-10T11:54:27;99872.16;;;20.75;30.95
31183;BME280;17813;0.000;0.000;2023-04-10T11:59:31;99870.09;;;20.59;30.77
31183;BME280;17813;0.000;0.000;2023-04-10T12:02:12;99859.25;;;20.41;31.61
31183;BME280;17813;0.000;0.000;2023-04-10T12:04:43;99861.75;;;20.52;31.67
31183;BME280;17813;0.000;0.000;2023-04-10T12:07:10;99852.88;;;20.42;32.11
31183;BME280;17813;0.000;0.000;2023-04-10T12:09:37;99856.72;;;20.30;31.79
31183;BME280;17813;0.000;0.000;2023-04-10T12:12:07;99855.81;;;20.49;31.88
31183;BME280;17813;0.000;0.000;2023-04-10T12:14:41;99857.28;;;20.34;31.79
31183;BME280;17813;0.000;0.000;2023-04-10T12:17:10;99840.56;;;20.40;30.90
31183;BME280;17813;0.000;0.000;2023-04-10T12:19:41;99842.81;;;19.98;31.83
31183;BME280;17813;0.000;0.000;2023-04-10T12:22:10;99842.13;;;19.86;32.94
31183;BME280;17813;0.000;0.000;2023-04-10T12:24:48;99837.19;;;19.72;33.14
31183;BME280;17813;0.000;0.000;2023-04-10T12:29:48;99838.59;;;19.47;32.51
31183;BME280;17813;0.000;0.000;2023-04-10T12:32:15;99838.31;;;19.31;33.27
31183;BME280;17813;0.000;0.000;2023-04-10T12:34:53;99830.25;;;19.21;32.99
31183;BME280;17813;0.000;0.000;2023-04-10T12:40:09;99828.00;;;19.16;34.18
31183;BME280;17813;0.000;0.000;2023-04-10T12:42:40;99828.28;;;19.23;32.39
31183;BME280;17813;0.000;0.000;2023-04-10T12:45:10;99811.53;;;18.81;31.60
31183;BME280;17813;0.000;0.000;2023-04-10T12:47:45;99811.81;;;18.78;30.69
31183;BME280;17813;0.000;0.000;2023-04-10T12:50:18;99798.81;;;18.92;34.16
31183;BME280;17813;0.000;0.000;2023-04-10T12:53:02;99794.72;;;18.98;34.08
31183;BME280;17813;0.000;0.000;2023-04-10T12:55:30;99802.38;;;18.93;33.24
31183;BME280;17813;0.000;0.000;2023-04-10T12:57:58;99801.50;;;18.92;33.15
31183;BME280;17813;0.000;0.000;2023-04-10T13:00:41;99792.31;;;18.76;32.79
31183;BME280;17813;0.000;0.000;2023-04-10T13:03:09;99785.72;;;18.49;33.53
31183;BME280;17813;0.000;0.000;2023-04-10T13:05:35;99772.41;;;18.48;33.29
31183;BME280;17813;0.000;0.000;2023-04-10T13:08:03;99778.75;;;18.37;32.92
31183;BME280;17813;0.000;0.000;2023-04-10T13:10:30;99764.75;;;18.34;33.85
31183;BME280;17813;0.000;0.000;2023-04-10T13:12:56;99770.28;;;18.42;32.98
31183;BME280;17813;0.000;0.000;2023-04-10T13:15:23;99759.47;;;18.62;33.27
31183;BME280;17813;0.000;0.000;2023-04-10T13:17:51;99754.59;;;18.47;34.92
31183;BME280;17813;0.000;0.000;2023-04-10T13:20:18;99745.13;;;18.43;33.13
31183;BME280;17813;0.000;0.000;2023-04-10T13:22:45;99743.56;;;18.40;34.20
31183;BME280;17813;0.000;0.000;2023-04-10T13:25:12;99743.97;;;18.36;34.08
31183;BME280;17813;0.000;0.000;2023-04-10T13:27:39;99738.75;;;18.04;33.11
31183;BME280;17813;0.000;0.000;2023-04-10T13:30:06;99737.81;;;18.14;33.50
31183;BME280;17813;0.000;0.000;2023-04-10T13:32:33;99724.38;;;18.05;33.40
31183;BME280;17813;0.000;0.000;2023-04-10T13:35:00;99718.81;;;17.96;33.04
31183;BME280;17813;0.000;0.000;2023-04-10T13:37:27;99715.88;;;17.99;34.75
31183;BME280;17813;0.000;0.000;2023-04-10T13:39:54;99718.59;;;18.09;33.07
31183;BME280;17813;0.000;0.000;2023-04-10T13:42:20;99712.94;;;18.12;33.00
31183;BME280;17813;0.000;0.000;2023-04-10T13:44:48;99708.53;;;18.02;33.81
31183;BME280;17813;0.000;0.000;2023-04-10T13:47:16;99705.72;;;18.03;33.57
31183;BME280;17813;0.000;0.000;2023-04-10T13:49:43;99692.72;;;17.98;33.16